Time;durP1;ratioP1;P1;durP2;ratioP2;P2;SDS_P1;SDS_P2;PMS_P1;PMS_P2;Temp;Humidity;BMP_temperature;BMP_pressure;BME280_temperature;BME280_humidity;BME280_pressure;Samples;Min_cycle;Max_cycle;Signal;HPM_P1;HPM_P2
2021/09/28 00:00:37;;;;;;;7.15;4.47;;;;;;;15.42;100.00;101279.16;4955728;28;20230;-76
2021/09/28 00:03:05;;;;;;;11.65;5.28;;;;;;;15.39;100.00;101278.91;4955448;28;20186;-75
2021/09/28 00:05:33;;;;;;;8.32;4.50;;;;;;;15.39;100.00;101289.88;4954976;28;20259;-75
2021/09/28 00:08:04;;;;;;;7.70;4.80;;;;;;;15.52;100.00;101294.69;4945924;28;20210;-75
2021/09/28 00:10:35;;;;;;;10.00;4.60;;;;;;;15.43;100.00;101302.69;4939117;28;20222;-75
2021/09/28 00:13:05;;;;;;;9.07;4.50;;;;;;;15.32;100.00;101299.53;4971310;28;20237;-75
2021/09/28 00:15:33;;;;;;;6.80;3.80;;;;;;;15.32;100.00;101305.81;4954797;28;20867;-75
2021/09/28 00:18:01;;;;;;;5.55;3.45;;;;;;;15.40;100.00;101307.91;4962791;28;20194;-75
2021/09/28 00:20:29;;;;;;;8.73;4.20;;;;;;;15.12;100.00;101314.16;4955028;28;20229;-74
2021/09/28 00:22:56;;;;;;;9.55;3.92;;;;;;;15.16;100.00;101312.53;4971112;28;20280;-75
2021/09/28 00:25:25;;;;;;;7.95;3.35;;;;;;;15.20;100.00;101315.50;4965002;28;20959;-75
2021/09/28 00:27:52;;;;;;;9.37;3.20;;;;;;;15.32;100.00;101322.22;4990135;28;20325;-74
2021/09/28 00:30:23;;;;;;;4.57;3.00;;;;;;;14.98;100.00;101325.22;4975424;28;20209;-74
2021/09/28 00:32:50;;;;;;;6.83;2.90;;;;;;;14.95;100.00;101331.28;4990759;28;20189;-74
2021/09/28 00:35:20;;;;;;;9.82;3.15;;;;;;;15.07;100.00;101327.91;4974262;28;20193;-75
2021/09/28 00:37:46;;;;;;;7.97;2.80;;;;;;;15.10;100.00;101327.31;4981600;28;20272;-74
2021/09/28 00:40:14;;;;;;;7.93;2.93;;;;;;;15.09;100.00;101322.94;4977072;28;20184;-75
2021/09/28 00:42:44;;;;;;;8.77;3.10;;;;;;;15.11;100.00;101334.44;4974813;28;20186;-74
2021/09/28 00:45:10;;;;;;;7.43;3.10;;;;;;;15.11;100.00;101331.69;4973927;28;20236;-74
2021/09/28 00:47:36;;;;;;;7.18;2.80;;;;;;;15.08;100.00;101331.44;4960900;28;20243;-74
2021/09/28 00:50:02;;;;;;;11.20;3.27;;;;;;;15.02;100.00;101327.91;4993224;28;20658;-75
2021/09/28 00:52:27;;;;;;;7.57;3.50;;;;;;;14.99;100.00;101326.88;4993357;28;20697;-74
2021/09/28 00:55:00;;;;;;;6.27;3.20;;;;;;;15.08;100.00;101331.44;4993814;28;20189;-74
2021/09/28 00:57:26;;;;;;;8.53;3.17;;;;;;;15.14;100.00;101330.31;4977477;28;20606;-75
2021/09/28 00:59:52;;;;;;;8.13;2.97;;;;;;;15.19;100.00;101328.38;4977614;28;20184;-75
2021/09/28 01:02:22;;;;;;;7.30;3.13;;;;;;;15.03;100.00;101332.28;4979147;28;20303;-72
2021/09/28 01:04:48;;;;;;;10.00;3.73;;;;;;;14.99;100.00;101333.94;4993542;28;20230;-74
2021/09/28 01:07:19;;;;;;;9.13;3.60;;;;;;;15.02;100.00;101343.53;4992515;28;20237;-75
2021/09/28 01:09:44;;;;;;;9.37;3.30;;;;;;;14.97;100.00;101340.00;4993273;28;20189;-74
2021/09/28 01:12:11;;;;;;;7.50;3.00;;;;;;;14.95;100.00;101347.69;4976638;28;20225;-74
2021/09/28 01:14:37;;;;;;;5.77;3.30;;;;;;;14.92;100.00;101348.25;5009626;28;20197;-75
2021/09/28 01:17:17;;;;;;;10.13;3.30;;;;;;;14.88;100.00;101352.66;4976724;28;20221;-73
2021/09/28 01:19:45;;;;;;;7.13;2.93;;;;;;;14.79;100.00;101355.16;5009910;28;20184;-74
2021/09/28 01:22:11;;;;;;;7.53;3.00;;;;;;;14.69;100.00;101359.88;4976583;28;20225;-74
2021/09/28 01:24:37;;;;;;;7.88;3.13;;;;;;;14.80;100.00;101358.72;4993331;28;20181;-76
2021/09/28 01:27:05;;;;;;;7.83;3.00;;;;;;;14.81;100.00;101357.63;4992223;28;20224;-75
2021/09/28 01:29:36;;;;;;;8.20;3.13;;;;;;;14.78;100.00;101363.63;4993633;28;20304;-76
2021/09/28 01:32:02;;;;;;;7.57;2.80;;;;;;;14.93;100.00;101364.38;5009053;28;20246;-76
2021/09/28 01:34:28;;;;;;;6.82;2.88;;;;;;;14.74;100.00;101357.09;4993424;28;20251;-76
2021/09/28 01:36:53;;;;;;;5.63;2.80;;;;;;;14.80;100.00;101361.47;4976754;28;20216;-76
2021/09/28 01:39:23;;;;;;;7.67;2.83;;;;;;;14.81;100.00;101368.56;4967279;28;20202;-76
2021/09/28 01:41:54;;;;;;;8.23;3.10;;;;;;;14.82;100.00;101373.75;4972688;28;20309;-75
2021/09/28 01:44:20;;;;;;;6.87;2.60;;;;;;;14.76;100.00;101374.03;4958530;28;20558;-77
2021/09/28 01:46:49;;;;;;;7.17;2.30;;;;;;;14.78;100.00;101378.16;4973537;28;20266;-74
2021/09/28 01:49:18;;;;;;;8.07;2.30;;;;;;;14.80;100.00;101377.88;4977372;28;20240;-76
2021/09/28 01:51:44;;;;;;;8.13;2.30;;;;;;;14.75;100.00;101375.16;4961675;28;20645;-76
2021/09/28 01:54:14;;;;;;;4.57;1.90;;;;;;;14.68;100.00;101374.66;4974034;28;20197;-76
2021/09/28 01:56:40;;;;;;;7.60;2.70;;;;;;;14.62;100.00;101385.91;4957923;28;20293;-76
2021/09/28 01:59:07;;;;;;;5.77;2.10;;;;;;;14.65;100.00;101383.41;4942032;28;20210;-76
2021/09/28 02:01:33;;;;;;;7.70;2.05;;;;;;;14.72;100.00;101386.66;4989912;28;20233;-75
2021/09/28 02:04:01;;;;;;;8.90;2.10;;;;;;;14.57;100.00;101394.94;4973860;28;20273;-76
2021/09/28 02:06:31;;;;;;;7.73;1.93;;;;;;;14.54;100.00;101379.09;4973305;28;20226;-75
2021/09/28 02:08:57;;;;;;;9.57;2.33;;;;;;;14.76;100.00;101387.72;4962637;28;20214;-76
2021/09/28 02:11:25;;;;;;;4.63;1.83;;;;;;;14.70;100.00;101399.78;4960598;28;20225;-76
2021/09/28 02:13:53;;;;;;;6.70;2.03;;;;;;;14.55;100.00;101402.59;4977456;28;20165;-76
2021/09/28 02:16:19;;;;;;;7.23;2.20;;;;;;;14.77;100.00;101390.19;4992460;28;20225;-76
2021/09/28 02:18:47;;;;;;;9.10;2.10;;;;;;;14.62;100.00;101392.19;4961782;28;20210;-76
2021/09/28 02:21:13;;;;;;;4.67;1.90;;;;;;;14.59;100.00;101391.94;4976352;28;20221;-76
2021/09/28 02:23:41;;;;;;;4.23;1.60;;;;;;;14.66;100.00;101399.53;4977418;28;20190;-75
2021/09/28 02:26:06;;;;;;;5.23;1.70;;;;;;;14.60;100.00;101391.66;4984986;28;20604;-76
2021/09/28 02:28:32;;;;;;;5.77;2.30;;;;;;;14.28;100.00;101391.25;4996709;28;20229;-76
2021/09/28 02:31:00;;;;;;;5.60;1.57;;;;;;;14.36;100.00;101393.38;5012735;28;20299;-75
2021/09/28 02:33:30;;;;;;;5.30;1.70;;;;;;;14.42;100.00;101395.00;4980324;28;20197;-76
2021/09/28 02:35:56;;;;;;;8.33;2.00;;;;;;;14.37;100.00;101396.94;4995569;28;20654;-76
2021/09/28 02:38:23;;;;;;;5.90;1.80;;;;;;;14.35;100.00;101393.66;4996331;28;20205;-75
2021/09/28 02:40:49;;;;;;;5.63;1.80;;;;;;;14.22;100.00;101402.44;4976523;28;20226;-76
2021/09/28 02:43:17;;;;;;;5.67;2.07;;;;;;;14.32;100.00;101397.78;4992922;28;20546;-76
2021/09/28 02:45:48;;;;;;;5.50;1.50;;;;;;;14.34;100.00;101409.25;5008488;28;20296;-75
2021/09/28 02:48:16;;;;;;;5.43;1.83;;;;;;;14.30;100.00;101399.13;4977002;28;20585;-76
2021/09/28 02:50:42;;;;;;;3.50;1.70;;;;;;;14.22;100.00;101407.91;4995927;28;20274;-75
2021/09/28 02:53:08;;;;;;;2.63;1.70;;;;;;;14.02;100.00;101412.59;4996032;28;20565;-76
2021/09/28 02:55:36;;;;;;;3.27;1.67;;;;;;;14.12;100.00;101410.69;4975768;28;20489;-76
2021/09/28 02:58:01;;;;;;;5.77;1.70;;;;;;;14.05;100.00;101412.06;4976756;28;20201;-76
2021/09/28 03:00:29;;;;;;;4.40;1.63;;;;;;;14.13;100.00;101414.22;5002329;28;20279;-76
2021/09/28 03:02:57;;;;;;;3.73;1.50;;;;;;;13.95;100.00;101417.50;5012209;28;20264;-76
2021/09/28 03:05:26;;;;;;;6.00;1.70;;;;;;;14.12;100.00;101423.50;5011972;28;20260;-76
2021/09/28 03:07:56;;;;;;;5.50;1.70;;;;;;;13.95;100.00;101421.03;4979690;28;20224;-76
2021/09/28 03:10:22;;;;;;;5.10;1.50;;;;;;;14.08;100.00;101427.88;4995519;28;20212;-75
2021/09/28 03:12:47;;;;;;;4.73;1.70;;;;;;;14.10;100.00;101420.22;4979411;28;20673;-76
2021/09/28 03:15:13;;;;;;;5.73;1.80;;;;;;;14.08;100.00;101422.44;4991873;28;20205;-76
2021/09/28 03:17:42;;;;;;;4.20;1.50;;;;;;;13.89;100.00;101424.06;4992341;28;20248;-76
2021/09/28 03:20:07;;;;;;;5.53;1.37;;;;;;;13.84;100.00;101426.78;4995723;28;20706;-76
2021/09/28 03:22:38;;;;;;;3.87;1.50;;;;;;;13.82;100.00;101437.19;4995997;28;20275;-76
2021/09/28 03:25:13;;;;;;;6.43;1.77;;;;;;;13.67;100.00;101431.72;4976666;28;20698;-76
2021/09/28 03:27:38;;;;;;;1.73;1.30;;;;;;;13.60;100.00;101436.63;4993712;28;20213;-76
2021/09/28 03:30:05;;;;;;;4.30;1.40;;;;;;;13.67;100.00;101429.00;4995950;28;20185;-74
2021/09/28 03:32:36;;;;;;;4.57;1.40;;;;;;;13.68;100.00;101433.38;4996143;28;20225;-75
2021/09/28 03:35:02;;;;;;;3.57;1.60;;;;;;;13.70;100.00;101439.38;4997870;28;20192;-75
2021/09/28 03:37:32;;;;;;;5.07;1.90;;;;;;;13.63;100.00;101441.56;4978209;28;20210;-75
2021/09/28 03:39:58;;;;;;;5.00;1.60;;;;;;;13.72;100.00;101441.84;4993921;28;20186;-76
2021/09/28 03:42:26;;;;;;;5.43;1.97;;;;;;;13.67;100.00;101442.66;4976853;28;20225;-74
2021/09/28 03:44:54;;;;;;;3.93;1.70;;;;;;;13.58;100.00;101436.09;4976958;28;21036;-77
2021/09/28 03:47:19;;;;;;;7.83;2.50;;;;;;;13.65;100.00;101444.84;4977561;28;20233;-77
2021/09/28 03:49:50;;;;;;;6.77;1.80;;;;;;;13.55;100.00;101450.31;4995434;28;20218;-75
2021/09/28 03:52:15;;;;;;;4.23;1.90;;;;;;;13.52;100.00;101450.84;5012626;28;20225;-75
2021/09/28 03:54:44;;;;;;;6.80;1.80;;;;;;;13.50;100.00;101453.03;4976184;28;20260;-75
2021/09/28 03:57:14;;;;;;;8.10;2.07;;;;;;;13.48;100.00;101466.13;4974379;28;20226;-77
2021/09/28 03:59:40;;;;;;;5.27;4.33;;;;;;;13.57;100.00;101464.50;4958760;28;20730;-77
2021/09/28 04:02:06;;;;;;;5.00;1.90;;;;;;;13.57;100.00;101469.97;4986107;28;20225;-76
2021/09/28 04:04:31;;;;;;;4.73;1.50;;;;;;;13.58;100.00;101466.13;4973351;28;20610;-75
2021/09/28 04:07:01;;;;;;;2.33;1.30;;;;;;;13.57;100.00;101472.69;4969088;28;20222;-76
2021/09/28 04:09:27;;;;;;;7.80;1.50;;;;;;;13.47;100.00;101469.94;4973169;28;20240;-76
2021/09/28 04:11:55;;;;;;;3.40;1.77;;;;;;;13.53;100.00;101476.22;4985567;28;20226;-76
2021/09/28 04:14:20;;;;;;;4.20;1.50;;;;;;;13.43;100.00;101475.41;4992284;28;20185;-75
2021/09/28 04:16:48;;;;;;;4.77;1.67;;;;;;;13.55;100.00;101472.16;4986967;28;20771;-76
2021/09/28 04:19:14;;;;;;;4.00;1.83;;;;;;;13.61;100.00;101476.50;5010247;28;20200;-76
2021/09/28 04:21:47;;;;;;;4.40;1.90;;;;;;;13.45;100.00;101477.56;4994041;28;20221;-76
2021/09/28 04:24:14;;;;;;;4.00;1.70;;;;;;;13.22;100.00;101482.72;4994258;28;20268;-77
2021/09/28 04:26:42;;;;;;;2.93;1.57;;;;;;;13.17;100.00;101479.97;4977748;28;20213;-74
2021/09/28 04:29:15;;;;;;;4.17;1.50;;;;;;;13.09;100.00;101487.84;4974750;28;20213;-75
2021/09/28 04:31:40;;;;;;;4.40;2.00;;;;;;;12.99;100.00;101482.38;4990487;28;20218;-75
2021/09/28 04:34:08;;;;;;;3.73;1.87;;;;;;;13.14;100.00;101496.06;4958169;28;20717;-76
2021/09/28 04:36:34;;;;;;;5.23;1.80;;;;;;;13.14;100.00;101493.34;5000671;28;20308;-75
2021/09/28 04:39:02;;;;;;;4.50;2.17;;;;;;;13.16;100.00;101483.78;4973905;28;20205;-76
2021/09/28 04:41:27;;;;;;;4.03;2.00;;;;;;;13.16;100.00;101500.16;4988937;28;20217;-75
2021/09/28 04:43:53;;;;;;;4.97;2.10;;;;;;;13.31;100.00;101507.56;4990605;28;20568;-75
2021/09/28 04:46:24;;;;;;;4.43;2.10;;;;;;;13.32;100.00;101509.22;4973348;28;20228;-75
2021/09/28 04:48:52;;;;;;;6.73;2.17;;;;;;;13.35;100.00;101508.66;4990550;28;20354;-75
2021/09/28 04:51:20;;;;;;;4.23;2.40;;;;;;;13.18;100.00;101513.53;4999759;28;20212;-76
2021/09/28 04:53:46;;;;;;;3.87;2.00;;;;;;;13.21;100.00;101519.28;4977553;28;20254;-76
2021/09/28 04:56:14;;;;;;;4.60;2.30;;;;;;;13.04;100.00;101523.31;5008502;28;20225;-75
2021/09/28 04:58:41;;;;;;;7.83;1.97;;;;;;;13.11;100.00;101526.59;4974404;28;20288;-76
2021/09/28 05:01:07;;;;;;;4.23;2.30;;;;;;;13.07;100.00;101523.59;4990208;28;20225;-75
2021/09/28 05:03:35;;;;;;;5.50;2.03;;;;;;;12.98;100.00;101535.28;4993960;28;20185;-75
2021/09/28 05:06:02;;;;;;;5.17;2.13;;;;;;;12.76;100.00;101531.06;4992938;28;20607;-75
2021/09/28 05:08:28;;;;;;;3.53;2.10;;;;;;;12.89;100.00;101534.16;4993420;28;20216;-75
2021/09/28 05:10:56;;;;;;;5.33;2.37;;;;;;;13.08;100.00;101529.88;4993915;28;20216;-76
2021/09/28 05:13:24;;;;;;;4.53;2.50;;;;;;;13.22;100.00;101529.13;5010468;28;20181;-75
2021/09/28 05:15:54;;;;;;;7.90;2.53;;;;;;;13.24;100.00;101531.56;4993911;28;20227;-74
2021/09/28 05:18:20;;;;;;;4.23;2.43;;;;;;;13.28;100.00;101528.03;4997043;28;20584;-75
2021/09/28 05:20:45;;;;;;;5.77;2.63;;;;;;;13.12;100.00;101536.44;4980543;28;20255;-75
2021/09/28 05:23:19;;;;;;;10.23;2.87;;;;;;;13.18;100.00;101538.09;4997031;28;20180;-75
2021/09/28 05:25:54;;;;;;;4.00;1.60;;;;;;;13.20;100.00;101539.44;4963778;28;20224;-75
2021/09/28 05:28:22;;;;;;;3.10;1.57;;;;;;;13.05;100.00;101541.31;4997638;28;20506;-76
2021/09/28 05:30:49;;;;;;;5.00;1.70;;;;;;;12.79;100.00;101549.63;5014418;28;20780;-75
2021/09/28 05:33:21;;;;;;;1.80;1.70;;;;;;;12.68;100.00;101558.81;4978245;28;20193;-75
2021/09/28 05:35:47;;;;;;;4.10;1.70;;;;;;;12.54;100.00;101559.53;4985080;28;20232;-76
2021/09/28 05:38:12;;;;;;;3.03;1.83;;;;;;;12.51;100.00;101570.97;5010003;28;20212;-76
2021/09/28 05:40:38;;;;;;;4.50;1.93;;;;;;;12.38;100.00;101571.41;4979333;28;20232;-75
2021/09/28 05:43:06;;;;;;;2.30;1.53;;;;;;;12.44;100.00;101570.41;4976632;28;20193;-76
2021/09/28 05:45:31;;;;;;;5.90;1.90;;;;;;;12.50;100.00;101574.78;4992256;28;20233;-75
2021/09/28 05:47:57;;;;;;;3.30;1.70;;;;;;;12.47;100.00;101578.88;4984780;28;20291;-76
2021/09/28 05:50:26;;;;;;;3.57;1.73;;;;;;;12.38;100.00;101585.03;4980735;28;20196;-75
2021/09/28 05:52:56;;;;;;;2.13;1.53;;;;;;;12.44;100.00;101586.75;4996896;28;20243;-76
2021/09/28 05:55:22;;;;;;;2.70;1.80;;;;;;;12.58;100.00;101590.63;5012995;28;20181;-75
2021/09/28 05:57:47;;;;;;;5.03;1.80;;;;;;;12.40;100.00;101591.88;4977558;28;20647;-75
2021/09/28 06:00:15;;;;;;;4.00;2.17;;;;;;;12.53;100.00;101602.34;4993273;28;20186;-76
2021/09/28 06:02:45;;;;;;;5.20;3.10;;;;;;;12.54;100.00;101600.44;4997398;28;20668;-75
2021/09/28 06:05:11;;;;;;;3.70;2.67;;;;;;;12.52;100.00;101599.88;4997117;28;20181;-74
2021/09/28 06:07:38;;;;;;;3.87;2.70;;;;;;;12.64;100.00;101609.50;4980506;28;20221;-75
2021/09/28 06:10:06;;;;;;;5.70;2.77;;;;;;;12.81;100.00;101605.53;4980911;28;20185;-75
2021/09/28 06:12:35;;;;;;;7.30;3.00;;;;;;;12.78;100.00;101607.94;4977027;28;20649;-75
2021/09/28 06:15:01;;;;;;;4.20;2.87;;;;;;;12.63;100.00;101604.31;4977410;28;20192;-75
2021/09/28 06:17:26;;;;;;;3.13;2.40;;;;;;;12.77;100.00;101614.50;4995645;28;20209;-75
2021/09/28 06:19:52;;;;;;;4.30;2.77;;;;;;;12.85;100.00;101606.66;4961393;28;20185;-75
2021/09/28 06:22:18;;;;;;;5.60;4.23;;;;;;;12.94;100.00;101605.09;4979318;28;20625;-76
2021/09/28 06:24:43;;;;;;;4.87;4.13;;;;;;;13.03;100.00;101602.69;4978698;28;20185;-75
2021/09/28 06:27:09;;;;;;;6.77;4.60;;;;;;;12.88;100.00;101605.34;5011918;28;20236;-75
2021/09/28 06:29:35;;;;;;;5.80;4.20;;;;;;;12.93;100.00;101619.81;4996860;28;20233;-74
2021/09/28 06:32:03;;;;;;;4.90;4.40;;;;;;;13.00;100.00;101617.66;4981101;28;20229;-76
2021/09/28 06:34:35;;;;;;;6.77;4.70;;;;;;;13.02;100.00;101615.50;4973346;28;20222;-76
2021/09/28 06:37:01;;;;;;;9.40;5.40;;;;;;;13.04;100.00;101616.06;4973409;28;20238;-75
2021/09/28 06:39:27;;;;;;;10.17;5.73;;;;;;;13.12;100.00;101618.28;4977121;28;20244;-75
2021/09/28 06:41:57;;;;;;;7.77;5.47;;;;;;;13.10;100.00;101626.72;4961009;28;20229;-75
2021/09/28 06:44:28;;;;;;;3.90;2.30;;;;;;;13.15;100.00;101617.75;4977268;28;20217;-74
2021/09/28 06:46:56;;;;;;;3.30;2.53;;;;;;;13.15;100.00;101629.47;4976395;28;20253;-75
2021/09/28 06:49:27;;;;;;;3.73;3.37;;;;;;;13.15;100.00;101628.66;4960050;28;20280;-75
2021/09/28 06:51:52;;;;;;;7.30;5.10;;;;;;;13.17;100.00;101638.22;4970717;28;20301;-75
2021/09/28 06:54:22;;;;;;;8.47;5.77;;;;;;;13.27;100.00;101632.00;4992692;28;20186;-75
2021/09/28 06:56:51;;;;;;;6.40;5.80;;;;;;;13.22;100.00;101632.81;4976045;28;20225;-76
2021/09/28 06:59:18;;;;;;;8.83;6.17;;;;;;;13.32;100.00;101626.56;4973630;28;20221;-75
2021/09/28 07:01:46;;;;;;;10.00;6.03;;;;;;;13.30;100.00;101626.00;4941175;28;20365;-75
2021/09/28 07:04:12;;;;;;;7.80;5.80;;;;;;;13.32;100.00;101637.47;4956709;28;20578;-74
2021/09/28 07:06:37;;;;;;;7.93;6.60;;;;;;;13.46;100.00;101632.09;4987800;28;20233;-75
2021/09/28 07:09:03;;;;;;;8.93;6.20;;;;;;;13.58;100.00;101634.56;4979643;28;20691;-75
2021/09/28 07:11:29;;;;;;;8.90;6.17;;;;;;;13.68;100.00;101632.72;5002862;28;20247;-74
2021/09/28 07:13:55;;;;;;;8.20;6.83;;;;;;;13.79;100.00;101631.66;4976593;28;20186;-76
2021/09/28 07:16:21;;;;;;;9.30;7.13;;;;;;;13.78;100.00;101630.00;4975385;28;20315;-75
2021/09/28 07:18:46;;;;;;;8.57;6.87;;;;;;;13.90;100.00;101644.25;4978333;28;20346;-75
2021/09/28 07:21:12;;;;;;;9.57;6.67;;;;;;;14.10;100.00;101641.56;4958984;28;20256;-75
2021/09/28 07:23:42;;;;;;;11.57;7.07;;;;;;;13.97;100.00;101640.16;4959465;28;20186;-74
2021/09/28 07:26:11;;;;;;;8.93;6.87;;;;;;;14.11;100.00;101645.94;4968036;28;20228;-75
2021/09/28 07:28:41;;;;;;;8.27;7.27;;;;;;;14.03;100.00;101650.03;4995036;28;20283;-75
2021/09/28 07:31:07;;;;;;;9.10;8.20;;;;;;;14.02;100.00;101645.66;4991325;28;20706;-76
2021/09/28 07:33:35;;;;;;;9.17;7.30;;;;;;;14.05;100.00;101652.50;4991720;28;20196;-76
2021/09/28 07:36:04;;;;;;;9.20;7.70;;;;;;;14.14;100.00;101656.31;4974461;28;20292;-75
2021/09/28 07:38:32;;;;;;;11.07;8.03;;;;;;;14.11;100.00;101657.69;4992193;28;20208;-75
2021/09/28 07:40:59;;;;;;;8.87;7.53;;;;;;;14.21;100.00;101654.94;5005647;28;20289;-75
2021/09/28 07:43:25;;;;;;;10.90;8.00;;;;;;;14.15;100.00;101658.78;4976064;28;20190;-76
2021/09/28 07:45:50;;;;;;;9.70;7.73;;;;;;;14.06;100.00;101654.94;4990687;28;20222;-75
2021/09/28 07:48:18;;;;;;;10.37;8.00;;;;;;;14.23;100.00;101662.88;4959351;28;20606;-75
2021/09/28 07:50:46;;;;;;;14.83;8.97;;;;;;;14.21;100.00;101656.88;4967178;28;20590;-75
2021/09/28 07:53:18;;;;;;;10.80;8.57;;;;;;;14.41;100.00;101655.81;4972512;28;20186;-76
2021/09/28 07:55:46;;;;;;;11.30;8.57;;;;;;;14.52;100.00;101649.22;4957887;28;20222;-76
2021/09/28 07:58:15;;;;;;;10.00;9.00;;;;;;;14.52;100.00;101656.63;4972022;28;20194;-75
2021/09/28 08:00:42;;;;;;;11.83;9.57;;;;;;;14.66;100.00;101655.81;4967687;28;20280;-75
2021/09/28 08:03:11;;;;;;;12.80;9.53;;;;;;;14.92;100.00;101650.03;4975353;28;20181;-76
2021/09/28 08:05:39;;;;;;;10.87;9.60;;;;;;;14.99;100.00;101660.69;4994625;28;20228;-75
2021/09/28 08:08:05;;;;;;;10.60;9.50;;;;;;;15.11;100.00;101659.31;4962036;28;20693;-75
2021/09/28 08:10:30;;;;;;;10.47;9.20;;;;;;;15.04;100.00;101656.84;4955359;28;20226;-75
2021/09/28 08:12:59;;;;;;;10.80;9.70;;;;;;;15.29;100.00;101656.81;4971525;28;20213;-74
2021/09/28 08:15:29;;;;;;;10.37;9.30;;;;;;;15.10;100.00;101657.66;4974808;28;20226;-76
2021/09/28 08:17:54;;;;;;;12.53;9.27;;;;;;;15.21;100.00;101665.59;4975343;28;20197;-76
2021/09/28 08:20:22;;;;;;;10.60;8.77;;;;;;;15.52;100.00;101656.19;4976011;28;20585;-76
2021/09/28 08:22:50;;;;;;;11.37;9.90;;;;;;;15.67;100.00;101661.59;4994280;28;20200;-75
2021/09/28 08:25:21;;;;;;;12.02;8.40;;;;;;;15.60;100.00;101664.63;4990489;28;20188;-75
2021/09/28 08:30:33;;;;;;;10.80;9.27;;;;;;;15.83;100.00;101663.97;4984052;28;20316;-75
2021/09/28 08:33:01;;;;;;;11.93;8.80;;;;;;;15.93;100.00;101664.75;4994590;28;20193;-75
2021/09/28 08:35:31;;;;;;;11.40;9.38;;;;;;;15.92;100.00;101663.09;4990165;28;20214;-76
2021/09/28 08:37:59;;;;;;;11.27;9.32;;;;;;;16.09;100.00;101669.03;4974743;28;20206;-75
2021/09/28 08:40:25;;;;;;;10.30;8.98;;;;;;;15.83;100.00;101659.31;4979170;28;20177;-76
2021/09/28 08:42:54;;;;;;;10.45;8.10;;;;;;;16.04;100.00;101658.09;4977652;28;20235;-76
2021/09/28 08:45:20;;;;;;;11.52;8.82;;;;;;;15.98;100.00;101670.19;4994001;28;20239;-75
2021/09/28 08:47:48;;;;;;;13.00;9.50;;;;;;;16.15;100.00;101667.88;4993535;28;20209;-75
2021/09/28 08:50:21;;;;;;;10.25;9.00;;;;;;;16.12;100.00;101665.72;4978589;28;20267;-75
2021/09/28 08:52:47;;;;;;;12.07;8.82;;;;;;;16.09;100.00;101669.03;5015022;28;20658;-76
2021/09/28 08:55:20;;;;;;;13.05;9.18;;;;;;;16.32;100.00;101668.38;4997077;28;20215;-75
2021/09/28 08:57:48;;;;;;;13.75;10.10;;;;;;;16.19;100.00;101669.81;4981415;28;20300;-75
2021/09/28 09:00:13;;;;;;;11.82;8.80;;;;;;;16.34;100.00;101668.91;4980949;28;20279;-75
2021/09/28 09:02:45;;;;;;;10.30;8.27;;;;;;;16.32;100.00;101668.38;5015280;28;20271;-75
2021/09/28 09:05:17;;;;;;;11.90;9.07;;;;;;;16.43;100.00;101672.69;4981239;28;20634;-76
2021/09/28 09:08:05;;;;;;;10.38;8.43;;;;;;;16.74;100.00;101664.72;4978086;28;20593;-75
2021/09/28 09:10:33;;;;;;;11.60;8.40;;;;;;;16.63;100.00;101660.44;4979792;28;20224;-75
2021/09/28 09:13:01;;;;;;;9.85;7.50;;;;;;;16.61;100.00;101668.13;4981975;28;20185;-75
2021/09/28 09:15:33;;;;;;;10.60;8.85;;;;;;;16.54;100.00;101660.50;4980619;28;20220;-76
2021/09/28 09:18:05;;;;;;;11.35;8.00;;;;;;;16.65;100.00;101668.38;5013622;28;20731;-76
2021/09/28 09:20:37;;;;;;;12.45;8.20;;;;;;;16.81;100.00;101667.97;4980255;28;20220;-75
2021/09/28 09:23:27;;;;;;;10.77;7.95;;;;;;;16.82;100.00;101663.28;4981087;28;20614;-76
2021/09/28 09:26:01;;;;;;;9.10;7.65;;;;;;;16.88;100.00;101662.94;4998082;28;20219;-76
2021/09/28 09:28:32;;;;;;;11.43;7.88;;;;;;;16.86;100.00;101665.16;5014300;28;20595;-76
2021/09/28 09:31:34;;;;;;;14.27;8.57;;;;;;;17.28;100.00;101668.88;4982259;28;20680;-76
2021/09/28 09:34:19;;;;;;;10.23;7.50;;;;;;;17.47;100.00;101658.75;5013340;28;20188;-77
2021/09/28 09:36:59;;;;;;;10.90;7.18;;;;;;;17.85;100.00;101653.84;4992557;28;20703;-76
2021/09/28 09:39:28;;;;;;;8.48;6.20;;;;;;;17.84;100.00;101662.41;4993584;28;20206;-75
2021/09/28 09:42:11;;;;;;;13.52;5.90;;;;;;;17.54;100.00;101651.78;4996931;28;20221;-75
2021/09/28 09:44:41;;;;;;;7.80;5.80;;;;;;;17.67;100.00;101655.75;4965790;28;20199;-75
2021/09/28 09:47:07;;;;;;;9.73;5.72;;;;;;;17.84;100.00;101662.41;4980181;28;20225;-75
2021/09/28 09:49:34;;;;;;;8.57;6.32;;;;;;;17.97;100.00;101650.69;4980484;28;20221;-75
2021/09/28 09:52:08;;;;;;;8.45;6.00;;;;;;;17.97;100.00;101667.19;4977770;28;20222;-76
2021/09/28 09:54:45;;;;;;;7.55;6.65;;;;;;;18.20;100.00;101656.97;4993258;28;20560;-75
2021/09/28 09:57:11;;;;;;;8.95;7.10;;;;;;;18.35;100.00;101664.16;4971631;28;20304;-75
2021/09/28 09:59:40;;;;;;;9.88;5.80;;;;;;;18.36;100.00;101661.09;4961921;28;20201;-74
2021/09/28 10:02:09;;;;;;;12.68;6.20;;;;;;;18.44;100.00;101657.66;4960908;28;20222;-75
2021/09/28 10:04:37;;;;;;;9.13;5.53;;;;;;;18.55;100.00;101659.97;4958208;28;20655;-75
2021/09/28 10:07:06;;;;;;;8.50;6.05;;;;;;;18.52;100.00;101654.25;4979567;28;20218;-76
2021/09/28 10:09:41;;;;;;;9.25;5.78;;;;;;;18.70;100.00;101656.13;4993465;28;20304;-75
2021/09/28 10:12:10;;;;;;;9.55;5.20;;;;;;;18.91;100.00;101648.03;5008587;28;20217;-76
2021/09/28 10:14:36;;;;;;;8.43;6.00;;;;;;;18.88;100.00;101654.16;4996999;28;20184;-76
2021/09/28 10:17:28;;;;;;;6.45;5.43;;;;;;;19.06;100.00;101656.03;5013770;28;20208;-77
2021/09/28 10:19:54;;;;;;;7.43;5.10;;;;;;;18.97;100.00;101644.13;5005083;28;20201;-77
2021/09/28 10:22:46;;;;;;;7.15;4.35;;;;;;;19.18;100.00;101653.63;4989842;28;20281;-78
2021/09/28 10:28:06;;;;;;;9.40;4.35;;;;;;;19.16;100.00;101650.38;5004977;28;20231;-77
2021/09/28 10:30:35;;;;;;;8.18;4.65;;;;;;;19.33;100.00;101647.81;4994430;28;20232;-78
2021/09/28 10:33:19;;;;;;;7.20;5.18;;;;;;;19.25;100.00;101648.53;5012018;28;20211;-77
2021/09/28 10:36:11;;;;;;;7.72;4.78;;;;;;;19.28;100.00;101650.66;4992245;28;20221;-76
2021/09/28 10:39:02;;;;;;;7.60;5.18;;;;;;;19.29;100.00;101644.06;5012150;28;20217;-77
2021/09/28 10:41:41;;;;;;;7.65;4.82;;;;;;;19.52;100.00;101643.00;4991405;28;20249;-78
2021/09/28 10:44:29;;;;;;;7.72;3.60;;;;;;;19.77;100.00;101641.34;5011903;28;20227;-77
2021/09/28 10:46:58;;;;;;;6.35;5.07;;;;;;;19.60;100.00;101645.88;5012388;28;20652;-77
2021/09/28 10:49:24;;;;;;;7.45;5.50;;;;;;;19.51;100.00;101655.19;5011881;28;20756;-77
2021/09/28 10:52:20;;;;;;;9.57;5.93;;;;;;;18.79;100.00;101652.41;5011730;28;20224;-75
2021/09/28 10:55:09;;;;;;;22.98;7.03;;;;;;;19.25;100.00;101647.69;4994202;28;20178;-78
2021/09/28 10:58:15;;;;;;;6.18;5.13;;;;;;;19.52;100.00;101643.00;4996156;28;20228;-77
2021/09/28 11:00:40;;;;;;;9.48;5.20;;;;;;;19.76;100.00;101650.78;5011489;28;20245;-76
2021/09/28 11:03:11;;;;;;;8.45;6.10;;;;;;;19.58;100.00;101648.13;5013110;28;20292;-77
2021/09/28 11:05:38;;;;;;;8.25;5.88;;;;;;;19.59;100.00;101643.44;4962704;28;20236;-78
2021/09/28 11:08:05;;;;;;;9.82;5.57;;;;;;;19.47;100.00;101640.38;4980016;28;20210;-77
2021/09/28 11:10:33;;;;;;;8.52;5.05;;;;;;;19.16;100.00;101633.84;4976310;28;20229;-77
2021/09/28 11:13:06;;;;;;;8.10;4.93;;;;;;;19.56;100.00;101636.59;4982352;28;20181;-77
2021/09/28 11:15:33;;;;;;;7.80;4.53;;;;;;;19.65;100.00;101639.44;4978618;28;20231;-77
2021/09/28 11:18:08;;;;;;;6.97;4.75;;;;;;;19.84;100.00;101639.03;5011365;28;20280;-76
2021/09/28 11:20:34;;;;;;;7.97;4.25;;;;;;;20.04;100.00;101630.31;4995040;28;20752;-78
2021/09/28 11:23:07;;;;;;;7.68;4.28;;;;;;;20.06;100.00;101639.09;4995300;28;20209;-77
2021/09/28 11:25:33;;;;;;;8.30;4.13;;;;;;;20.13;100.00;101639.50;4978434;28;20221;-76
2021/09/28 11:28:16;;;;;;;6.95;4.30;;;;;;;20.03;100.00;101636.13;5012023;28;20224;-77